createdAt,value
2023-03-06T00:11:55.353Z,9.20
2023-03-06T06:01:28.781Z,10.60
2023-03-06T06:07:48.631Z,8.77
2023-03-06T06:10:53.386Z,9.70
2023-03-06T06:13:58.375Z,15.00
2023-03-06T06:17:01.169Z,16.17
2023-03-06T06:20:04.313Z,17.20
2023-03-06T06:23:13.569Z,18.30
2023-03-06T06:26:19.066Z,13.68
2023-03-06T06:29:24.936Z,17.12
2023-03-06T06:32:27.445Z,16.77
2023-03-06T06:35:30.200Z,15.15
2023-03-06T06:38:34.525Z,13.13
2023-03-06T06:41:55.292Z,15.75
2023-03-06T06:45:03.694Z,15.75
2023-03-06T06:48:06.672Z,12.75
2023-03-06T06:51:09.095Z,15.07
2023-03-06T06:54:12.675Z,13.33
2023-03-06T06:57:17.417Z,12.93
2023-03-06T07:00:20.663Z,13.62
2023-03-06T07:03:24.008Z,16.92
2023-03-06T07:06:26.976Z,9.55
2023-03-06T07:09:30.944Z,10.63
2023-03-06T07:12:35.143Z,13.73
2023-03-06T07:15:37.624Z,12.77
2023-03-06T07:18:40.489Z,16.67
2023-03-06T07:21:42.891Z,12.37
2023-03-06T07:24:45.564Z,11.57
2023-03-06T07:27:53.292Z,12.90
2023-03-06T07:30:56.524Z,10.95
2023-03-06T07:33:59.074Z,15.10
2023-03-06T07:37:01.817Z,11.38
2023-03-06T07:40:05.960Z,11.87
2023-03-06T07:43:18.617Z,11.70
2023-03-06T07:46:22.135Z,9.02
2023-03-06T07:49:24.827Z,12.57
2023-03-06T07:52:28.790Z,12.77
2023-03-06T07:55:31.544Z,9.63
2023-03-06T07:58:34.276Z,11.90
2023-03-06T08:01:39.509Z,11.75
2023-03-06T08:04:42.362Z,12.23
2023-03-06T08:07:45.357Z,8.70
2023-03-06T08:10:49.218Z,9.37
2023-03-06T08:13:53.091Z,10.32
2023-03-06T08:16:56.389Z,12.40
2023-03-06T08:19:58.887Z,10.85
2023-03-06T08:23:01.697Z,11.15
2023-03-06T08:26:07.941Z,10.27
2023-03-06T08:29:11.379Z,12.60
2023-03-06T08:32:13.889Z,9.00
2023-03-06T08:35:16.807Z,11.35
2023-03-06T08:38:19.208Z,11.85
2023-03-06T08:41:22.203Z,12.33
2023-03-06T08:44:24.648Z,9.35
2023-03-06T08:47:27.492Z,7.78
2023-03-06T08:50:29.896Z,10.73
2023-03-06T08:53:42.651Z,9.57
2023-03-06T08:56:45.559Z,7.43
2023-03-06T08:59:48.253Z,7.97
2023-03-06T09:02:50.808Z,7.62
2023-03-06T09:05:53.581Z,12.77
2023-03-06T09:08:56.344Z,9.65
2023-03-06T09:11:59.305Z,6.67
2023-03-06T09:15:04.538Z,5.45
2023-03-06T09:18:07.407Z,9.90
2023-03-06T09:21:10.746Z,8.75
2023-03-06T09:24:13.383Z,8.00
2023-03-06T09:27:15.784Z,7.80
2023-03-06T09:30:19.038Z,5.60
2023-03-06T09:33:21.809Z,5.37
2023-03-06T09:36:24.763Z,6.20
2023-03-06T09:39:27.440Z,5.78
2023-03-06T09:42:31.599Z,6.07
2023-03-06T09:45:37.405Z,7.10
2023-03-06T09:48:56.301Z,7.12
2023-03-06T09:51:58.696Z,5.72
2023-03-06T09:55:11.787Z,6.97
2023-03-06T09:58:17.149Z,5.60
2023-03-06T10:01:28.124Z,8.90
2023-03-06T10:04:51.992Z,8.48
2023-03-06T10:08:01.325Z,6.85
2023-03-06T10:11:08.863Z,7.00
2023-03-06T10:14:18.729Z,4.53
2023-03-06T10:17:23.908Z,7.22
2023-03-06T10:20:28.224Z,6.28
2023-03-06T10:24:09.501Z,6.37
2023-03-06T10:27:57.069Z,8.43
2023-03-06T10:31:18.070Z,6.87
2023-03-06T10:34:28.806Z,4.40
2023-03-06T10:37:32.586Z,6.35
2023-03-06T10:40:44.375Z,6.07
2023-03-06T10:44:05.353Z,6.68
2023-03-06T10:47:30.513Z,6.60
2023-03-06T10:50:34.557Z,8.35
2023-03-06T10:53:53.849Z,6.57
2023-03-06T10:56:56.817Z,5.87
2023-03-06T11:00:24.478Z,5.30
2023-03-06T11:03:27.472Z,6.40
2023-03-06T11:06:35.697Z,6.97
2023-03-06T11:09:38.683Z,7.55
2023-03-06T11:12:43.523Z,7.60
2023-03-06T11:16:26.919Z,5.93
2023-03-06T11:19:30.302Z,8.73
2023-03-06T11:22:34.864Z,13.70
2023-03-06T11:25:42.755Z,7.72
2023-03-06T11:28:48.575Z,8.35
2023-03-06T11:32:23.148Z,8.63
2023-03-06T11:35:35.828Z,8.40
2023-03-06T11:38:58.614Z,10.48
2023-03-06T11:42:13.075Z,6.68
2023-03-06T11:45:37.415Z,8.60
2023-03-06T11:48:49.803Z,6.80
2023-03-06T11:51:56.738Z,5.40
2023-03-06T11:54:59.404Z,7.82
2023-03-06T11:58:23.319Z,7.85
2023-03-06T12:01:44.006Z,5.93
2023-03-06T12:05:01.863Z,5.57
2023-03-06T12:08:25.683Z,7.43
2023-03-06T12:11:42.258Z,10.00
2023-03-06T12:15:07.078Z,7.70
2023-03-06T12:18:34.331Z,8.60
2023-03-06T12:22:09.238Z,7.25
2023-03-06T12:25:39.879Z,5.77
2023-03-06T12:28:55.041Z,7.07
2023-03-06T12:32:08.598Z,5.43
2023-03-06T12:35:29.328Z,6.25
2023-03-06T12:38:41.121Z,6.70
2023-03-06T12:42:01.649Z,8.13
2023-03-06T12:45:14.149Z,9.15
2023-03-06T12:48:23.059Z,9.35
2023-03-06T12:51:26.296Z,7.00
2023-03-06T12:54:31.471Z,6.47
2023-03-06T12:57:34.298Z,8.23
2023-03-06T13:00:39.514Z,7.53
2023-03-06T13:04:01.044Z,8.45
2023-03-06T13:07:18.803Z,10.07
2023-03-06T13:10:26.627Z,9.88
2023-03-06T13:13:41.577Z,10.03
2023-03-06T13:16:44.499Z,10.82
2023-03-06T13:19:48.347Z,13.43
2023-03-06T13:22:51.076Z,8.63
2023-03-06T13:25:53.571Z,13.32
2023-03-06T13:28:58.295Z,10.37
2023-03-06T13:32:00.734Z,13.13
2023-03-06T13:35:45.999Z,8.90
2023-03-06T13:38:48.417Z,10.50
2023-03-06T13:42:00.292Z,9.05
2023-03-06T13:45:27.056Z,9.37
2023-03-06T13:48:44.892Z,8.77
2023-03-06T13:51:53.940Z,9.77
2023-03-06T13:55:24.192Z,10.35
2023-03-06T13:58:46.534Z,7.95
2023-03-06T14:02:23.501Z,9.57
2023-03-06T14:05:53.514Z,10.55
2023-03-06T14:08:56.295Z,9.95
2023-03-06T14:12:07.932Z,7.93
2023-03-06T14:15:31.628Z,11.32
2023-03-06T14:18:41.711Z,11.13
2023-03-06T14:21:56.418Z,9.85
2023-03-06T14:25:15.229Z,7.60
2023-03-06T14:28:32.321Z,10.50
2023-03-06T14:31:41.565Z,11.57
2023-03-06T14:34:46.772Z,10.83
2023-03-06T14:37:53.265Z,10.40
2023-03-06T14:40:56.239Z,12.98
2023-03-06T14:44:21.736Z,13.18
2023-03-06T14:47:29.801Z,11.02
2023-03-06T14:50:36.148Z,11.57
2023-03-06T14:53:38.836Z,11.27
2023-03-06T14:56:46.027Z,11.40
2023-03-06T14:59:59.717Z,12.07
2023-03-06T15:03:07.670Z,15.23
2023-03-06T15:06:16.027Z,15.03
2023-03-06T15:09:31.624Z,10.73
2023-03-06T15:12:36.414Z,12.00
2023-03-06T15:15:39.221Z,11.27
2023-03-06T15:18:56.507Z,16.60
2023-03-06T15:21:59.408Z,10.93
2023-03-06T15:25:14.332Z,14.38
2023-03-06T15:28:31.489Z,11.10
2023-03-06T15:31:35.427Z,13.07
2023-03-06T15:34:38.336Z,11.60
2023-03-06T15:37:40.800Z,15.03
2023-03-06T15:40:57.674Z,14.60
2023-03-06T15:44:02.792Z,15.25
2023-03-06T15:47:09.427Z,15.65
2023-03-06T15:50:28.851Z,14.27
2023-03-06T15:53:31.743Z,21.80
2023-03-06T15:56:38.625Z,13.35
2023-03-06T15:59:45.088Z,21.23
2023-03-06T16:02:49.634Z,13.65
2023-03-06T16:05:52.424Z,16.98
2023-03-06T16:08:54.992Z,17.17
2023-03-06T16:11:57.705Z,16.42
2023-03-06T16:15:21.138Z,18.92
2023-03-06T16:18:23.892Z,15.50
2023-03-06T16:21:47.314Z,18.48
2023-03-06T16:25:05.460Z,19.60
2023-03-06T16:28:26.964Z,18.02
2023-03-06T16:31:55.927Z,20.02
2023-03-06T16:35:35.343Z,20.60
2023-03-06T16:39:04.625Z,18.92
2023-03-06T16:42:27.444Z,17.43
2023-03-06T16:46:08.834Z,18.08
2023-03-06T16:49:38.175Z,21.60
2023-03-06T16:53:08.429Z,15.73
2023-03-06T16:56:25.364Z,17.05
2023-03-06T16:59:58.374Z,27.93
2023-03-06T17:03:32.235Z,16.20
2023-03-06T17:06:46.849Z,18.90
2023-03-06T17:10:13.278Z,18.40
2023-03-06T17:13:43.991Z,19.27
2023-03-06T17:17:16.286Z,24.83
2023-03-06T17:20:40.871Z,20.45
2023-03-06T17:24:05.631Z,20.02
2023-03-06T17:31:24.381Z,20.23
2023-03-06T17:34:43.573Z,23.50
2023-03-06T17:38:12.074Z,20.75
2023-03-06T17:41:38.071Z,22.35
2023-03-06T17:52:14.298Z,27.23
2023-03-06T17:55:29.350Z,35.28
2023-03-06T18:02:43.545Z,38.50
2023-03-06T18:06:30.075Z,46.37
2023-03-06T18:09:54.626Z,40.57
2023-03-06T18:13:41.555Z,39.00
2023-03-06T18:17:14.763Z,40.40
2023-03-06T18:24:27.581Z,42.75
2023-03-06T18:27:53.741Z,49.73
2023-03-06T18:35:16.465Z,41.25
2023-03-06T18:38:54.450Z,40.97
2023-03-06T18:45:33.772Z,34.27
2023-03-06T18:53:33.250Z,28.15
2023-03-06T18:57:16.070Z,28.58
2023-03-06T19:01:03.277Z,33.13
2023-03-06T19:08:05.681Z,25.95
2023-03-06T19:11:58.075Z,27.08
2023-03-06T19:19:34.270Z,25.83
2023-03-06T19:22:59.458Z,22.93
2023-03-06T19:30:29.349Z,21.35
2023-03-06T19:33:59.464Z,21.83
2023-03-06T19:37:38.832Z,20.25
2023-03-06T19:53:15.234Z,21.00
2023-03-06T19:56:40.867Z,19.83
2023-03-06T20:00:06.631Z,21.53
2023-03-06T20:07:41.224Z,24.08
2023-03-06T20:11:20.251Z,20.42
2023-03-06T20:22:34.502Z,29.35
2023-03-06T20:30:23.342Z,23.05
2023-03-06T20:34:01.233Z,18.92
2023-03-06T20:45:38.385Z,21.60
2023-03-06T20:53:00.108Z,26.08
2023-03-06T20:56:48.817Z,24.97
2023-03-06T21:00:23.527Z,19.75
2023-03-06T21:03:46.068Z,19.83
2023-03-06T21:07:26.296Z,17.92
2023-03-06T21:11:12.541Z,18.42
2023-03-06T21:14:52.091Z,21.20
2023-03-06T21:22:19.146Z,19.25
2023-03-06T21:26:06.526Z,19.20
2023-03-06T21:29:36.062Z,21.30
2023-03-06T21:33:15.199Z,20.27
2023-03-06T21:40:44.920Z,20.10
2023-03-06T21:56:03.704Z,21.80
2023-03-06T21:59:52.388Z,19.15
2023-03-06T22:11:41.990Z,21.23
2023-03-06T22:15:40.123Z,22.13
2023-03-06T22:34:24.348Z,19.23
2023-03-06T23:17:54.269Z,27.98
2023-03-06T23:21:39.849Z,23.87
2023-03-06T23:33:08.466Z,21.62
